Time;durP1;ratioP1;P1;durP2;ratioP2;P2;SDS_P1;SDS_P2;PMS_P1;PMS_P2;Temp;Humidity;BMP_temperature;BMP_pressure;BME280_temperature;BME280_humidity;BME280_pressure;Samples;Min_cycle;Max_cycle;Signal;HPM_P1;HPM_P2
2021/11/05 00:00:46;;;;;;;27.87;20.37;;;;;;;13.81;77.70;100681.44;1669750;84;21188;-69
2021/11/05 00:03:13;;;;;;;29.17;21.70;;;;;;;13.81;77.78;100694.31;1671264;84;21873;-69
2021/11/05 00:05:41;;;;;;;26.77;19.63;;;;;;;13.80;77.85;100680.64;1670512;84;21314;-67
2021/11/05 00:08:08;;;;;;;26.70;19.30;;;;;;;13.81;77.84;100678.20;1670968;84;21842;-68
2021/11/05 00:10:38;;;;;;;27.07;21.27;;;;;;;13.81;77.88;100681.44;1669886;86;21697;-68
2021/11/05 00:13:05;;;;;;;23.70;18.37;;;;;;;13.79;77.92;100664.28;1671208;84;21825;-67
2021/11/05 00:15:31;;;;;;;27.93;20.83;;;;;;;13.78;78.03;100663.98;1671384;84;21788;-68
2021/11/05 00:17:58;;;;;;;27.17;19.33;;;;;;;13.81;78.09;100658.07;1669958;84;21903;-68
2021/11/05 00:20:26;;;;;;;26.03;19.83;;;;;;;13.82;78.16;100661.04;1661166;85;21331;-68
2021/11/05 00:22:52;;;;;;;27.73;19.23;;;;;;;13.82;78.23;100658.36;1670776;84;21288;-70
2021/11/05 00:25:20;;;;;;;27.20;20.67;;;;;;;13.87;78.17;100663.43;1669637;84;21135;-68
2021/11/05 00:27:47;;;;;;;27.83;21.40;;;;;;;13.90;78.15;100666.91;1671300;84;21294;-68
2021/11/05 00:30:14;;;;;;;28.90;21.60;;;;;;;13.90;78.13;100650.25;1670025;86;21430;-68
2021/11/05 00:32:41;;;;;;;25.20;18.93;;;;;;;13.92;78.13;100633.85;1670202;84;21909;-68
2021/11/05 00:35:07;;;;;;;27.80;21.03;;;;;;;13.92;78.17;100629.83;1669476;84;21502;-68
2021/11/05 00:37:34;;;;;;;27.20;21.27;;;;;;;13.88;78.22;100629.58;1671451;85;21278;-68
2021/11/05 00:40:01;;;;;;;28.57;20.70;;;;;;;13.88;78.37;100624.75;1670557;84;21233;-68
2021/11/05 00:42:27;;;;;;;25.00;18.40;;;;;;;13.91;78.39;100617.48;1670724;84;21444;-69
2021/11/05 00:44:54;;;;;;;26.47;19.10;;;;;;;13.94;78.43;100619.62;1670820;84;22065;-68
2021/11/05 00:47:20;;;;;;;29.33;20.87;;;;;;;13.96;78.47;100627.67;1669683;84;21491;-69
2021/11/05 00:49:47;;;;;;;27.27;20.50;;;;;;;13.98;78.50;100627.37;1670725;84;21330;-68
2021/11/05 00:52:13;;;;;;;26.50;20.33;;;;;;;14.01;78.54;100632.99;1670705;84;21769;-68
2021/11/05 00:54:42;;;;;;;29.63;22.37;;;;;;;14.04;78.58;100631.64;1671104;84;21229;-68
2021/11/05 00:57:08;;;;;;;26.50;20.67;;;;;;;14.08;78.60;100627.31;1669491;84;21367;-68
2021/11/05 00:59:35;;;;;;;26.63;18.47;;;;;;;14.12;78.60;100627.59;1670333;84;21258;-68
2021/11/05 01:02:02;;;;;;;27.07;19.80;;;;;;;14.14;78.58;100630.78;1670483;84;21174;-68
2021/11/05 01:04:29;;;;;;;26.00;20.10;;;;;;;14.14;78.61;100634.27;1670436;84;21276;-68
2021/11/05 01:06:55;;;;;;;27.27;19.37;;;;;;;14.19;78.59;100638.81;1669949;84;21323;-69
2021/11/05 01:09:23;;;;;;;28.43;20.73;;;;;;;14.21;78.62;100640.13;1671016;84;21362;-68
2021/11/05 01:11:50;;;;;;;27.97;20.53;;;;;;;14.24;78.64;100642.25;1671950;84;21271;-68
2021/11/05 01:14:17;;;;;;;27.57;20.93;;;;;;;14.28;78.60;100648.69;1657739;84;21269;-69
2021/11/05 01:16:44;;;;;;;26.87;19.97;;;;;;;14.29;78.55;100646.26;1671120;84;21770;-68
2021/11/05 01:19:12;;;;;;;27.00;19.83;;;;;;;14.31;78.54;100644.11;1670684;84;21488;-68
2021/11/05 01:21:38;;;;;;;27.13;20.70;;;;;;;14.36;78.47;100645.14;1668575;85;21732;-68
2021/11/05 01:24:05;;;;;;;28.23;20.90;;;;;;;14.38;78.43;100633.55;1671342;84;21351;-68
2021/11/05 01:26:32;;;;;;;27.10;20.33;;;;;;;14.43;78.26;100618.75;1670609;84;21163;-68
2021/11/05 01:28:59;;;;;;;29.23;21.50;;;;;;;14.46;78.17;100624.91;1671757;84;21291;-69
2021/11/05 01:31:26;;;;;;;26.97;20.90;;;;;;;14.47;78.12;100624.61;1641409;86;21338;-68
2021/11/05 01:33:53;;;;;;;26.27;20.90;;;;;;;14.48;78.04;100616.04;1671080;84;21820;-68
2021/11/05 01:36:20;;;;;;;23.93;16.87;;;;;;;14.48;78.01;100610.66;1649225;84;21401;-68
2021/11/05 01:38:47;;;;;;;26.87;19.90;;;;;;;14.49;77.98;100609.57;1670214;84;21388;-69
2021/11/05 01:41:15;;;;;;;28.63;21.67;;;;;;;14.48;77.95;100612.01;1641927;86;21354;-68
2021/11/05 01:43:47;;;;;;;26.20;19.80;;;;;;;14.48;77.95;100614.15;1663830;84;21616;-68
2021/11/05 01:46:14;;;;;;;26.27;20.55;;;;;;;14.49;77.97;100614.40;1670740;84;21362;-69
2021/11/05 01:48:41;;;;;;;23.70;18.67;;;;;;;14.49;77.99;100613.60;1650096;85;21094;-68
2021/11/05 01:51:08;;;;;;;26.67;20.70;;;;;;;14.50;78.02;100609.82;1665054;84;21381;-68
2021/11/05 01:53:36;;;;;;;26.77;19.07;;;;;;;14.54;78.13;100612.23;1642080;86;21275;-68
2021/11/05 01:56:04;;;;;;;26.83;20.80;;;;;;;14.54;78.13;100612.23;1657630;84;21461;-68
2021/11/05 01:58:30;;;;;;;26.83;20.10;;;;;;;14.54;78.00;100613.57;1670357;84;21336;-68
2021/11/05 02:00:57;;;;;;;28.30;21.73;;;;;;;14.56;78.01;100614.11;1670684;84;21811;-68
2021/11/05 02:03:23;;;;;;;29.03;21.37;;;;;;;14.60;78.29;100625.09;1642760;87;21413;-68
2021/11/05 02:05:52;;;;;;;24.83;18.77;;;;;;;14.60;78.29;100625.09;1670158;84;21442;-69
2021/11/05 02:08:22;;;;;;;28.30;21.37;;;;;;;14.63;77.92;100623.98;1670617;84;21528;-68
2021/11/05 02:10:49;;;;;;;26.07;19.57;;;;;;;14.65;78.12;100624.52;1640968;86;21559;-69
2021/11/05 02:13:17;;;;;;;28.60;20.23;;;;;;;14.65;78.12;100624.52;1669511;84;21423;-68
2021/11/05 02:15:43;;;;;;;24.27;18.80;;;;;;;14.66;78.08;100618.59;1641572;86;21528;-68
2021/11/05 02:18:10;;;;;;;23.43;17.70;;;;;;;14.66;77.84;100610.53;1641918;86;21433;-69
2021/11/05 02:20:37;;;;;;;27.93;20.53;;;;;;;14.66;77.84;100610.53;1630417;86;21488;-69
2021/11/05 02:23:04;;;;;;;26.20;20.53;;;;;;;14.67;78.08;100611.58;1637638;86;21394;-69
2021/11/05 02:25:31;;;;;;;23.70;19.07;;;;;;;14.71;78.07;100615.33;1642553;86;21426;-70
2021/11/05 02:27:57;;;;;;;19.20;15.40;;;;;;;14.75;77.98;100604.80;1669998;85;21415;-70
2021/11/05 02:30:24;;;;;;;24.93;18.87;;;;;;;14.74;77.93;100605.35;1641299;87;21473;-70
2021/11/05 02:32:50;;;;;;;27.87;20.83;;;;;;;14.75;77.92;100611.52;1670043;86;21446;-70
2021/11/05 02:35:19;;;;;;;24.13;18.57;;;;;;;14.77;78.16;100618.23;1641655;87;21449;-70
2021/11/05 02:37:48;;;;;;;26.57;19.50;;;;;;;14.77;78.16;100618.23;1671337;85;22027;-69
2021/11/05 02:40:15;;;;;;;25.90;19.93;;;;;;;14.84;78.14;100627.83;1642779;86;21542;-70
2021/11/05 02:42:42;;;;;;;24.57;20.20;;;;;;;14.84;78.14;100627.83;1649896;84;21392;-69
2021/11/05 02:45:09;;;;;;;25.13;20.30;;;;;;;14.86;78.02;100627.02;1671443;84;21389;-69
2021/11/05 02:47:36;;;;;;;24.87;19.50;;;;;;;14.90;77.86;100633.42;1671156;84;21891;-69
2021/11/05 02:50:14;;;;;;;28.10;20.53;;;;;;;14.90;77.86;100633.42;1642276;87;21545;-69
2021/11/05 02:52:41;;;;;;;27.43;20.90;;;;;;;14.92;77.96;100636.64;1669900;84;21471;-69
2021/11/05 02:55:09;;;;;;;26.07;19.33;;;;;;;14.90;77.95;100628.04;1643425;85;21991;-69
2021/11/05 02:57:36;;;;;;;26.30;20.47;;;;;;;14.92;78.13;100628.57;1669795;84;21508;-69
2021/11/05 03:00:06;;;;;;;27.07;21.33;;;;;;;14.92;78.13;100628.57;1669731;84;21934;-68
2021/11/05 03:02:34;;;;;;;27.52;20.68;;;;;;;14.95;78.04;100629.35;1670819;84;21339;-69
2021/11/05 03:05:01;;;;;;;27.33;21.27;;;;;;;14.96;78.01;100628.25;1642636;87;21042;-69
2021/11/05 03:07:28;;;;;;;26.70;18.93;;;;;;;14.98;78.04;100624.75;1641478;86;21406;-68
2021/11/05 03:09:55;;;;;;;27.87;21.03;;;;;;;14.98;78.04;100624.75;1641308;86;21495;-68
2021/11/05 03:12:22;;;;;;;25.03;19.00;;;;;;;14.99;77.93;100623.66;1641036;86;21680;-68
2021/11/05 03:14:51;;;;;;;23.73;19.73;;;;;;;14.94;77.80;100621.83;1641249;86;21434;-69
2021/11/05 03:17:17;;;;;;;27.43;20.90;;;;;;;14.97;77.89;100617.75;1641301;86;21728;-69
2021/11/05 03:19:44;;;;;;;28.23;20.83;;;;;;;14.92;78.11;100621.84;1641190;86;21441;-69
2021/11/05 03:22:11;;;;;;;24.90;19.00;;;;;;;14.92;78.11;100621.84;1640136;87;21520;-69
2021/11/05 03:24:37;;;;;;;23.63;18.03;;;;;;;14.90;78.03;100617.28;1641546;86;22021;-69
2021/11/05 03:27:04;;;;;;;25.53;18.30;;;;;;;14.97;78.32;100623.13;1641979;85;21620;-69
2021/11/05 03:29:31;;;;;;;24.90;19.53;;;;;;;14.95;78.08;100625.31;1640864;86;21517;-69
2021/11/05 03:31:57;;;;;;;24.13;20.17;;;;;;;14.95;78.08;100625.31;1641131;86;21426;-69
2021/11/05 03:34:24;;;;;;;29.27;21.83;;;;;;;14.97;78.05;100624.47;1641378;86;21763;-69
2021/11/05 03:36:51;;;;;;;28.67;20.57;;;;;;;14.99;78.08;100614.24;1641233;86;21485;-68
2021/11/05 03:39:18;;;;;;;22.43;17.10;;;;;;;15.05;78.06;100616.34;1640418;86;21507;-69
2021/11/05 03:41:45;;;;;;;28.03;20.27;;;;;;;15.13;77.72;100606.28;1641316;87;21990;-69
2021/11/05 03:44:12;;;;;;;24.40;18.23;;;;;;;15.13;77.72;100606.28;1641733;86;21469;-69
2021/11/05 03:46:39;;;;;;;22.50;18.33;;;;;;;15.09;77.85;100603.92;1641322;87;21721;-69
2021/11/05 03:49:05;;;;;;;26.90;19.93;;;;;;;15.06;77.90;100605.28;1640727;86;21687;-69
2021/11/05 03:51:32;;;;;;;28.17;20.40;;;;;;;15.04;77.98;100612.03;1638072;86;21985;-69
2021/11/05 03:53:59;;;;;;;25.23;20.00;;;;;;;15.10;78.23;100614.38;1670264;84;21523;-69
2021/11/05 03:56:26;;;;;;;25.53;18.57;;;;;;;15.10;78.23;100614.38;1668870;84;21554;-69
2021/11/05 03:58:52;;;;;;;26.47;20.93;;;;;;;15.11;78.25;100615.20;1641007;86;22034;-69
2021/11/05 04:01:22;;;;;;;27.40;20.20;;;;;;;15.11;78.25;100615.20;1669557;85;21632;-69
2021/11/05 04:03:49;;;;;;;26.43;20.83;;;;;;;15.10;78.12;100611.69;1642704;86;21546;-69
2021/11/05 04:06:16;;;;;;;27.17;19.50;;;;;;;15.17;78.17;100623.48;1669511;84;21760;-68
2021/11/05 04:08:44;;;;;;;26.30;20.43;;;;;;;15.17;78.17;100623.48;1641277;86;21480;-68
2021/11/05 04:11:11;;;;;;;26.40;18.80;;;;;;;15.27;78.02;100627.41;1641220;86;21513;-68
2021/11/05 04:13:39;;;;;;;26.93;20.50;;;;;;;15.27;78.06;100633.30;1641304;86;21554;-69
2021/11/05 04:16:06;;;;;;;27.33;19.97;;;;;;;15.29;78.04;100628.45;1640094;86;21509;-69
2021/11/05 04:18:34;;;;;;;25.70;20.27;;;;;;;15.39;77.61;100612.18;1642990;86;21484;-68
2021/11/05 04:21:01;;;;;;;28.07;20.70;;;;;;;15.39;77.61;100612.18;1642281;86;21970;-68
2021/11/05 04:23:28;;;;;;;25.87;19.10;;;;;;;15.42;77.66;100622.38;1640830;86;22354;-69
2021/11/05 04:25:54;;;;;;;27.37;19.17;;;;;;;15.44;77.60;100618.86;1641165;86;21666;-69
2021/11/05 04:28:22;;;;;;;28.20;20.50;;;;;;;15.45;77.38;100621.25;1641344;86;21727;-68
2021/11/05 04:30:48;;;;;;;30.40;21.27;;;;;;;15.41;77.50;100617.55;1668889;84;22129;-69
2021/11/05 04:33:15;;;;;;;28.67;20.53;;;;;;;15.39;77.72;100616.22;1670099;86;21848;-69
2021/11/05 04:35:42;;;;;;;27.63;20.07;;;;;;;15.44;77.57;100612.93;1640832;86;21772;-69
2021/11/05 04:38:09;;;;;;;28.70;21.40;;;;;;;15.46;77.54;100616.15;1671296;85;21715;-70
2021/11/05 04:40:35;;;;;;;30.13;21.63;;;;;;;15.49;77.29;100616.89;1670378;84;21822;-68
2021/11/05 04:43:02;;;;;;;24.70;18.90;;;;;;;15.50;77.31;100617.72;1616517;88;22304;-68
2021/11/05 04:45:28;;;;;;;28.50;21.27;;;;;;;15.51;77.40;100611.23;1644514;87;21785;-68
2021/11/05 04:47:55;;;;;;;26.37;19.57;;;;;;;15.50;77.45;100608.30;1666347;84;21772;-68
2021/11/05 04:50:22;;;;;;;27.00;20.40;;;;;;;15.51;77.33;100609.89;1670373;86;21718;-68
2021/11/05 04:52:49;;;;;;;27.43;20.50;;;;;;;15.55;77.16;100608.22;1670890;84;21532;-68
2021/11/05 04:55:18;;;;;;;30.93;21.40;;;;;;;15.55;77.16;100605.52;1671034;84;22214;-69
2021/11/05 04:57:45;;;;;;;29.17;20.67;;;;;;;15.56;77.51;100607.11;1670001;86;21756;-68
2021/11/05 05:00:13;;;;;;;30.60;22.30;;;;;;;15.58;77.36;100614.38;1670750;84;21740;-68
2021/11/05 05:02:41;;;;;;;28.53;20.60;;;;;;;15.57;77.48;100612.78;1669540;85;21565;-68
2021/11/05 05:05:07;;;;;;;28.83;20.27;;;;;;;15.62;77.41;100617.28;1669361;84;21780;-68
2021/11/05 05:07:34;;;;;;;26.67;19.63;;;;;;;15.65;77.29;100612.12;1670084;86;22196;-68
2021/11/05 05:10:01;;;;;;;26.83;20.50;;;;;;;15.68;77.20;100621.00;1670326;84;21850;-68
2021/11/05 05:12:27;;;;;;;26.93;19.67;;;;;;;15.68;77.20;100621.00;1671274;84;21833;-68
2021/11/05 05:14:54;;;;;;;29.73;21.00;;;;;;;15.69;77.14;100626.66;1670616;84;21828;-69
2021/11/05 05:17:20;;;;;;;26.27;19.77;;;;;;;15.69;76.94;100630.70;1668163;84;21692;-68
2021/11/05 05:19:47;;;;;;;28.27;20.53;;;;;;;15.69;77.18;100632.05;1669843;84;21703;-68
2021/11/05 05:22:14;;;;;;;28.40;20.40;;;;;;;15.70;77.11;100626.11;1669376;84;21950;-69
2021/11/05 05:24:41;;;;;;;25.50;19.50;;;;;;;15.67;77.18;100620.75;1669754;84;21874;-68
2021/11/05 05:27:08;;;;;;;27.80;20.10;;;;;;;15.69;77.17;100622.63;1670384;84;22170;-68
2021/11/05 05:29:35;;;;;;;28.30;19.90;;;;;;;15.76;77.03;100618.75;1671581;85;21829;-68
2021/11/05 05:32:03;;;;;;;27.27;18.93;;;;;;;15.79;76.94;100620.86;1668974;84;22201;-68
2021/11/05 05:34:30;;;;;;;27.27;19.93;;;;;;;15.79;76.97;100614.13;1670477;84;21543;-68
2021/11/05 05:36:57;;;;;;;25.10;19.07;;;;;;;15.80;76.87;100617.89;1669910;84;21809;-69
2021/11/05 05:39:23;;;;;;;25.93;18.97;;;;;;;15.84;76.93;100614.07;1671270;85;21755;-69
2021/11/05 05:41:50;;;;;;;28.47;19.80;;;;;;;15.86;76.94;100615.91;1669971;84;21671;-68
2021/11/05 05:44:16;;;;;;;28.13;19.53;;;;;;;15.88;77.03;100630.70;1670382;85;22162;-69
2021/11/05 05:46:43;;;;;;;28.60;19.90;;;;;;;15.88;77.03;100630.70;1670840;84;21743;-68
2021/11/05 05:49:09;;;;;;;28.27;20.03;;;;;;;15.89;77.13;100640.40;1670215;84;21902;-68
2021/11/05 05:51:36;;;;;;;28.33;19.30;;;;;;;15.95;76.96;100633.82;1669905;86;22270;-68
2021/11/05 05:54:03;;;;;;;25.10;18.47;;;;;;;16.01;76.84;100630.52;1670314;84;21723;-69
2021/11/05 05:56:29;;;;;;;25.07;18.87;;;;;;;16.03;76.76;100627.55;1669875;84;21699;-68
2021/11/05 05:58:56;;;;;;;25.97;19.13;;;;;;;16.05;76.72;100637.47;1669664;84;23300;-68
2021/11/05 06:01:23;;;;;;;27.90;19.37;;;;;;;16.05;76.65;100647.70;1669985;84;21858;-68
2021/11/05 06:03:50;;;;;;;26.83;19.13;;;;;;;16.03;76.68;100660.68;1668845;84;21770;-68
2021/11/05 06:06:17;;;;;;;26.13;19.33;;;;;;;16.03;76.68;100663.38;1671208;84;22244;-68
2021/11/05 06:08:44;;;;;;;25.87;18.33;;;;;;;16.09;76.46;100666.25;1669244;84;22306;-68
2021/11/05 06:11:11;;;;;;;27.30;19.57;;;;;;;16.09;76.44;100661.39;1671345;85;21736;-68
2021/11/05 06:13:40;;;;;;;28.10;19.00;;;;;;;16.06;76.46;100668.19;1670860;84;21753;-68
2021/11/05 06:16:07;;;;;;;27.57;19.37;;;;;;;16.09;76.44;100675.69;1671585;85;21753;-68
2021/11/05 06:18:36;;;;;;;26.43;19.47;;;;;;;16.14;76.30;100681.54;1670571;84;21864;-69
2021/11/05 06:21:04;;;;;;;25.67;18.17;;;;;;;16.18;76.18;100677.96;1643983;87;22211;-68
2021/11/05 06:23:31;;;;;;;24.47;19.30;;;;;;;16.20;76.07;100679.03;1647485;84;22285;-69
2021/11/05 06:25:59;;;;;;;25.20;19.17;;;;;;;16.24;76.00;100687.33;1669667;84;21745;-68
2021/11/05 06:28:25;;;;;;;27.40;18.53;;;;;;;16.26;75.91;100674.37;1671550;84;21790;-69
2021/11/05 06:30:54;;;;;;;26.77;19.13;;;;;;;16.27;75.81;100672.73;1671007;84;22256;-68
2021/11/05 06:33:20;;;;;;;25.73;19.13;;;;;;;16.31;75.74;100668.34;1669965;84;21820;-69
2021/11/05 06:35:48;;;;;;;27.77;20.07;;;;;;;16.34;75.69;100670.45;1671367;84;21829;-68
2021/11/05 06:38:14;;;;;;;27.40;20.57;;;;;;;16.37;75.63;100678.52;1671028;84;21759;-69
2021/11/05 06:40:42;;;;;;;29.43;20.50;;;;;;;16.37;75.64;100680.66;1670290;84;21719;-68
2021/11/05 06:43:08;;;;;;;25.80;18.87;;;;;;;16.45;75.49;100679.73;1669586;84;21747;-69
2021/11/05 06:45:35;;;;;;;28.67;20.43;;;;;;;16.39;75.69;100687.13;1670632;84;22316;-68
2021/11/05 06:48:02;;;;;;;27.00;19.37;;;;;;;16.41;75.65;100680.87;1671381;84;21905;-69
2021/11/05 06:50:28;;;;;;;30.70;21.57;;;;;;;16.44;75.67;100670.05;1669583;84;21722;-69
2021/11/05 06:52:55;;;;;;;30.93;21.53;;;;;;;16.45;75.71;100667.60;1644032;86;22232;-68
2021/11/05 06:55:22;;;;;;;32.87;21.67;;;;;;;16.49;75.75;100663.25;1654290;84;22238;-68
2021/11/05 06:57:49;;;;;;;29.07;20.73;;;;;;;16.56;75.70;100667.16;1669834;85;21791;-68
2021/11/05 07:00:16;;;;;;;32.37;21.57;;;;;;;16.64;75.63;100660.29;1668730;84;21948;-69
2021/11/05 07:02:43;;;;;;;30.40;21.17;;;;;;;16.74;75.72;100660.67;1671403;84;22289;-69
2021/11/05 07:05:11;;;;;;;31.87;21.83;;;;;;;16.83;75.36;100659.73;1671120;84;21121;-69
2021/11/05 07:07:38;;;;;;;34.63;23.90;;;;;;;16.83;75.36;100659.73;1669663;86;21083;-69
2021/11/05 07:10:06;;;;;;;29.40;21.57;;;;;;;16.93;75.30;100662.80;1669845;86;22178;-68
2021/11/05 07:12:33;;;;;;;33.00;22.60;;;;;;;16.99;75.06;100660.27;1669881;86;22266;-68
2021/11/05 07:15:00;;;;;;;33.23;21.80;;;;;;;17.02;74.86;100653.48;1667465;84;21067;-69
2021/11/05 07:17:28;;;;;;;33.97;23.53;;;;;;;17.04;74.73;100661.52;1670097;84;21148;-69
2021/11/05 07:19:55;;;;;;;32.30;21.50;;;;;;;17.09;74.60;100661.43;1670463;84;21076;-69
2021/11/05 07:22:24;;;;;;;32.50;22.00;;;;;;;17.12;74.39;100664.09;1669283;84;21074;-69
2021/11/05 07:24:51;;;;;;;31.30;22.07;;;;;;;17.14;74.23;100663.22;1668599;84;21097;-69
2021/11/05 07:27:18;;;;;;;31.13;22.07;;;;;;;17.19;73.96;100655.05;1669812;84;21577;-69
2021/11/05 07:29:46;;;;;;;33.30;23.57;;;;;;;17.17;73.94;100649.69;1669643;84;21529;-68
2021/11/05 07:32:14;;;;;;;33.27;22.77;;;;;;;17.18;73.94;100650.75;1669821;84;20959;-68
2021/11/05 07:34:40;;;;;;;33.67;23.13;;;;;;;17.22;73.83;100642.30;1670229;86;21553;-69
2021/11/05 07:37:18;;;;;;;35.27;23.53;;;;;;;17.24;73.77;100638.77;1670757;84;21038;-69
2021/11/05 07:39:43;;;;;;;35.27;23.83;;;;;;;17.31;73.68;100651.87;1671380;85;21586;-68
2021/11/05 07:42:10;;;;;;;37.07;25.00;;;;;;;17.40;73.59;100669.50;1669778;84;21229;-68
2021/11/05 07:44:38;;;;;;;32.27;22.37;;;;;;;17.46;73.49;100671.80;1669615;86;21181;-69
2021/11/05 07:47:06;;;;;;;34.80;22.17;;;;;;;17.53;73.30;100677.59;1670310;84;21161;-68
2021/11/05 07:49:33;;;;;;;34.93;23.70;;;;;;;17.57;73.08;100667.81;1669733;86;21026;-68
2021/11/05 07:52:00;;;;;;;33.20;22.67;;;;;;;17.62;72.94;100671.50;1669004;84;20986;-69
2021/11/05 07:54:28;;;;;;;32.83;23.33;;;;;;;17.66;72.80;100680.60;1671134;85;21121;-69
2021/11/05 07:56:55;;;;;;;34.47;23.63;;;;;;;17.68;72.71;100683.81;1670608;84;21542;-69
2021/11/05 07:59:22;;;;;;;36.13;24.20;;;;;;;17.70;72.63;100682.42;1669851;86;20987;-69
2021/11/05 08:01:48;;;;;;;33.27;24.20;;;;;;;17.73;72.42;100676.38;1669411;84;21077;-69
2021/11/05 08:04:17;;;;;;;37.47;24.90;;;;;;;17.77;72.27;100671.23;1670671;84;21094;-68
2021/11/05 08:06:43;;;;;;;34.83;23.43;;;;;;;17.79;72.15;100675.77;1670137;84;21191;-69
2021/11/05 08:09:12;;;;;;;34.93;23.97;;;;;;;17.80;72.06;100691.69;1669729;86;21014;-68
2021/11/05 08:11:38;;;;;;;33.93;24.00;;;;;;;17.82;71.89;100699.48;1669752;86;21717;-69
2021/11/05 08:14:05;;;;;;;35.27;24.83;;;;;;;17.81;71.78;100706.00;1669370;84;21526;-69
2021/11/05 08:16:32;;;;;;;37.00;23.63;;;;;;;17.80;71.69;100714.66;1670014;86;21050;-68
2021/11/05 08:19:00;;;;;;;28.57;21.57;;;;;;;17.79;71.61;100716.30;1669778;84;21899;-69
2021/11/05 08:21:27;;;;;;;36.30;24.50;;;;;;;17.78;71.58;100714.70;1669806;86;21051;-69
2021/11/05 08:23:53;;;;;;;26.50;20.83;;;;;;;17.77;71.56;100710.41;1669686;84;21003;-69
2021/11/05 08:26:20;;;;;;;33.10;21.90;;;;;;;17.77;71.51;100703.66;1669950;86;21171;-68
2021/11/05 08:28:47;;;;;;;29.07;21.80;;;;;;;17.74;71.40;100713.68;1670421;84;21086;-69
2021/11/05 08:31:15;;;;;;;35.90;23.50;;;;;;;17.69;71.36;100710.52;1670447;84;21848;-69
2021/11/05 08:34:00;;;;;;;31.83;21.83;;;;;;;17.69;71.45;100713.77;1668480;85;21177;-68
2021/11/05 08:39:49;;;;;;;33.37;22.17;;;;;;;17.74;71.51;100702.88;1670154;85;21036;-70
2021/11/05 08:42:16;;;;;;;30.20;22.67;;;;;;;17.84;71.44;100710.80;1670006;84;21129;-70
2021/11/05 08:44:44;;;;;;;33.33;23.10;;;;;;;17.92;71.39;100716.83;1671036;84;21033;-70
2021/11/05 08:47:12;;;;;;;33.23;24.37;;;;;;;17.99;71.32;100706.96;1669931;84;21054;-70
2021/11/05 08:49:40;;;;;;;33.73;23.00;;;;;;;18.06;71.13;100700.59;1643261;85;21174;-69
2021/11/05 08:52:07;;;;;;;32.87;22.53;;;;;;;18.15;71.04;100700.68;1669611;84;21639;-69
2021/11/05 08:54:34;;;;;;;32.17;22.47;;;;;;;18.23;70.86;100701.33;1668941;85;20993;-70
2021/11/05 08:57:01;;;;;;;31.73;22.87;;;;;;;18.30;70.67;100692.80;1670547;84;21773;-69
2021/11/05 08:59:28;;;;;;;31.40;21.83;;;;;;;18.37;70.47;100693.17;1669754;86;20986;-70
2021/11/05 09:01:55;;;;;;;27.20;19.60;;;;;;;18.43;70.32;100686.54;1669696;84;21010;-70
2021/11/05 09:04:22;;;;;;;26.40;19.50;;;;;;;18.48;70.10;100674.23;1671389;85;21122;-71
2021/11/05 09:06:49;;;;;;;30.17;21.83;;;;;;;18.50;69.90;100670.68;1670660;84;21050;-70
2021/11/05 09:09:16;;;;;;;28.87;19.97;;;;;;;18.61;69.58;100680.69;1669862;86;21151;-70
2021/11/05 09:11:51;;;;;;;31.23;22.23;;;;;;;18.65;69.55;100681.11;1669396;84;21617;-70
2021/11/05 09:14:18;;;;;;;28.67;20.57;;;;;;;18.77;69.49;100679.24;1669956;86;21136;-70
2021/11/05 09:16:46;;;;;;;31.07;22.23;;;;;;;18.89;69.26;100677.34;1669879;84;21010;-70
2021/11/05 09:19:13;;;;;;;29.57;22.03;;;;;;;19.00;69.05;100673.25;1669692;84;21203;-70
2021/11/05 09:21:40;;;;;;;30.13;21.63;;;;;;;19.08;68.77;100678.45;1671256;84;21124;-70
2021/11/05 09:24:06;;;;;;;30.87;22.07;;;;;;;19.13;68.46;100675.06;1669697;84;21600;-69
2021/11/05 09:26:34;;;;;;;30.27;22.70;;;;;;;19.18;68.04;100680.89;1668600;84;21145;-70
2021/11/05 09:29:00;;;;;;;32.77;22.30;;;;;;;19.19;67.85;100679.80;1669212;84;21117;-70
2021/11/05 09:31:27;;;;;;;28.00;21.70;;;;;;;19.23;67.70;100674.55;1669978;84;21054;-69
2021/11/05 09:33:54;;;;;;;29.13;21.77;;;;;;;19.24;67.47;100674.23;1670123;85;21819;-70
2021/11/05 09:36:21;;;;;;;30.00;21.70;;;;;;;19.25;67.30;100677.20;1671245;84;21001;-70
2021/11/05 09:38:48;;;;;;;29.60;21.87;;;;;;;19.25;67.29;100685.33;1671094;84;21184;-71
2021/11/05 09:41:15;;;;;;;29.07;21.23;;;;;;;19.27;67.19;100683.64;1670382;84;21501;-69
2021/11/05 09:43:43;;;;;;;26.97;20.30;;;;;;;19.29;66.94;100678.16;1669886;84;21081;-70
2021/11/05 09:46:10;;;;;;;28.20;20.93;;;;;;;19.33;66.84;100679.12;1670087;83;21220;-70
2021/11/05 09:48:38;;;;;;;25.90;19.57;;;;;;;19.33;66.81;100674.27;1671399;84;21150;-71
2021/11/05 09:51:08;;;;;;;30.00;21.63;;;;;;;19.36;66.79;100666.32;1669124;84;21067;-73
2021/11/05 09:53:38;;;;;;;27.07;20.77;;;;;;;19.36;66.73;100671.73;1664184;85;21054;-70
2021/11/05 09:56:08;;;;;;;28.53;21.13;;;;;;;19.38;66.60;100669.52;1668968;84;21074;-70
2021/11/05 09:58:42;;;;;;;28.40;20.40;;;;;;;19.37;66.45;100662.49;1671460;85;21026;-70
2021/11/05 10:01:06;;;;;;;27.37;21.70;;;;;;;19.37;66.24;100653.01;1669582;84;21111;-70
2021/11/05 10:03:33;;;;;;;27.37;20.07;;;;;;;19.37;66.27;100647.59;1669846;84;20995;-70
2021/11/05 10:06:00;;;;;;;27.37;20.47;;;;;;;19.40;66.25;100640.20;1669915;84;21114;-70
2021/11/05 10:08:33;;;;;;;26.20;19.43;;;;;;;19.41;66.18;100632.86;1669821;86;21711;-70
2021/11/05 10:11:01;;;;;;;26.10;19.77;;;;;;;19.44;66.07;100633.59;1669150;84;21095;-70
2021/11/05 10:13:29;;;;;;;24.30;18.40;;;;;;;19.45;65.81;100638.71;1669934;86;21153;-70
2021/11/05 10:15:57;;;;;;;24.23;17.93;;;;;;;19.44;65.63;100645.78;1669818;84;21172;-70
2021/11/05 10:18:29;;;;;;;25.60;19.50;;;;;;;19.41;65.46;100647.23;1671372;84;21046;-70
2021/11/05 10:21:13;;;;;;;24.90;19.10;;;;;;;19.36;65.33;100655.48;1671351;84;21125;-71
2021/11/05 10:23:43;;;;;;;25.33;18.90;;;;;;;19.31;65.36;100662.38;1670785;84;21058;-69
2021/11/05 10:26:32;;;;;;;22.67;17.70;;;;;;;19.28;65.35;100656.27;1670711;84;21162;-69
2021/11/05 10:28:59;;;;;;;24.60;18.40;;;;;;;19.26;65.46;100662.54;1667749;85;21076;-70
2021/11/05 10:31:27;;;;;;;23.87;17.97;;;;;;;19.28;65.52;100656.80;1669894;84;21110;-69
2021/11/05 10:33:55;;;;;;;23.90;18.43;;;;;;;19.34;65.57;100651.48;1667140;84;21522;-69
2021/11/05 10:36:24;;;;;;;22.53;16.83;;;;;;;19.39;65.47;100652.72;1670325;83;21054;-69
2021/11/05 10:38:58;;;;;;;24.17;18.13;;;;;;;19.41;65.38;100645.88;1669726;86;20998;-70
2021/11/05 10:41:26;;;;;;;22.97;17.57;;;;;;;19.41;65.26;100641.81;1670372;84;21041;-70
2021/11/05 10:43:59;;;;;;;21.67;16.87;;;;;;;19.36;65.10;100641.94;1669974;84;21046;-70
2021/11/05 10:46:39;;;;;;;22.70;17.30;;;;;;;19.36;65.13;100643.30;1670691;84;21054;-70
2021/11/05 10:49:25;;;;;;;22.23;16.10;;;;;;;19.43;65.18;100633.36;1670343;84;21087;-70
2021/11/05 10:51:52;;;;;;;21.27;16.70;;;;;;;19.49;65.11;100632.66;1669863;86;21050;-69
2021/11/05 10:54:20;;;;;;;20.70;16.40;;;;;;;19.59;65.02;100626.95;1669208;84;21073;-71
2021/11/05 10:56:47;;;;;;;20.60;17.07;;;;;;;19.66;64.74;100629.45;1670280;86;21015;-69
2021/11/05 10:59:14;;;;;;;20.30;15.87;;;;;;;19.72;64.60;100636.89;1669858;84;21019;-69
2021/11/05 11:01:43;;;;;;;22.30;16.50;;;;;;;19.82;64.39;100627.09;1670365;86;21161;-69
2021/11/05 11:04:12;;;;;;;20.13;15.77;;;;;;;19.90;63.83;100628.21;1669789;84;21545;-69
2021/11/05 11:06:45;;;;;;;19.87;15.13;;;;;;;19.94;63.58;100617.52;1671356;84;21208;-70
2021/11/05 11:09:19;;;;;;;22.50;16.93;;;;;;;19.96;63.29;100622.08;1670424;84;20999;-69
2021/11/05 11:11:54;;;;;;;18.43;14.40;;;;;;;19.99;62.81;100620.09;1669847;86;20971;-69
2021/11/05 11:14:32;;;;;;;21.80;16.90;;;;;;;19.97;62.61;100618.25;1669600;84;21334;-69